sensor_id;sensor_type;location;lat;lon;timestamp;pressure;altitude;pressure_sealevel;temperature;humidity
53758;BME280;39674;59.860;30.672;2022-08-11T00:02:03;102144.31;;;11.73;87.99
53758;BME280;39674;59.860;30.672;2022-08-11T00:05:28;102126.88;;;11.67;87.34
53758;BME280;39674;59.860;30.672;2022-08-11T00:08:48;102160.47;;;11.92;87.96
53758;BME280;39674;59.860;30.672;2022-08-11T00:11:48;102163.34;;;11.84;87.90
53758;BME280;39674;59.860;30.672;2022-08-11T00:15:36;102131.38;;;11.65;87.23
53758;BME280;39674;59.860;30.672;2022-08-11T00:18:26;102159.25;;;11.76;88.40
53758;BME280;39674;59.860;30.672;2022-08-11T00:22:00;102085.03;;;11.25;88.76
53758;BME280;39674;59.860;30.672;2022-08-11T00:24:41;102107.53;;;11.38;88.84
53758;BME280;39674;59.860;30.672;2022-08-11T00:27:36;102143.22;;;11.53;90.30
53758;BME280;39674;59.860;30.672;2022-08-11T00:30:56;102155.59;;;11.53;89.42
53758;BME280;39674;59.860;30.672;2022-08-11T00:33:34;102179.81;;;11.67;90.13
53758;BME280;39674;59.860;30.672;2022-08-11T00:36:40;102148.56;;;11.52;88.53
53758;BME280;39674;59.860;30.672;2022-08-11T00:46:49;102123.00;;;11.51;95.11
53758;BME280;39674;59.860;30.672;2022-08-11T00:50:12;102085.97;;;11.24;93.62
53758;BME280;39674;59.860;30.672;2022-08-11T00:53:38;102072.66;;;11.27;94.44
53758;BME280;39674;59.860;30.672;2022-08-11T01:00:17;102061.44;;;11.19;94.05
53758;BME280;39674;59.860;30.672;2022-08-11T01:03:40;102124.44;;;11.61;94.69
53758;BME280;39674;59.860;30.672;2022-08-11T01:06:49;102155.69;;;11.77;93.69
53758;BME280;39674;59.860;30.672;2022-08-11T01:09:57;102088.81;;;11.45;93.84
53758;BME280;39674;59.860;30.672;2022-08-11T01:13:13;102073.28;;;11.34;93.94
53758;BME280;39674;59.860;30.672;2022-08-11T01:16:37;102175.34;;;11.96;93.03
53758;BME280;39674;59.860;30.672;2022-08-11T03:32:56;102076.81;;;11.61;95.39
53758;BME280;39674;59.860;30.672;2022-08-11T03:36:58;102109.25;;;11.93;94.98
53758;BME280;39674;59.860;30.672;2022-08-11T03:40:32;102136.94;;;12.10;95.79
53758;BME280;39674;59.860;30.672;2022-08-11T03:44:12;102108.31;;;11.94;95.46
53758;BME280;39674;59.860;30.672;2022-08-11T03:52:33;102065.69;;;11.77;95.43
53758;BME280;39674;59.860;30.672;2022-08-11T03:54:32;102062.28;;;11.73;96.23
53758;BME280;39674;59.860;30.672;2022-08-11T03:58:28;102049.38;;;11.89;95.72
53758;BME280;39674;59.860;30.672;2022-08-11T04:02:07;102168.47;;;12.66;94.72
53758;BME280;39674;59.860;30.672;2022-08-11T04:05:35;102117.88;;;12.49;94.58
53758;BME280;39674;59.860;30.672;2022-08-11T04:19:59;102055.06;;;12.75;92.21
53758;BME280;39674;59.860;30.672;2022-08-11T04:26:53;102143.34;;;13.67;90.59
53758;BME280;39674;59.860;30.672;2022-08-11T04:30:13;102059.81;;;13.33;89.67
53758;BME280;39674;59.860;30.672;2022-08-11T04:34:17;102042.50;;;13.45;88.46
53758;BME280;39674;59.860;30.672;2022-08-11T04:37:46;102023.56;;;13.54;87.18
53758;BME280;39674;59.860;30.672;2022-08-11T04:45:33;102098.06;;;14.51;86.27
53758;BME280;39674;59.860;30.672;2022-08-11T04:49:27;102097.88;;;14.75;86.28
53758;BME280;39674;59.860;30.672;2022-08-11T04:53:37;102037.97;;;14.68;83.88
53758;BME280;39674;59.860;30.672;2022-08-11T05:01:36;102136.16;;;15.65;82.57
53758;BME280;39674;59.860;30.672;2022-08-11T05:44:50;102048.00;;;17.63;76.51
53758;BME280;39674;59.860;30.672;2022-08-11T12:44:32;101811.03;;;24.64;43.75
53758;BME280;39674;59.860;30.672;2022-08-11T12:52:27;101814.59;;;24.55;44.09
53758;BME280;39674;59.860;30.672;2022-08-11T13:35:23;101788.72;;;23.83;44.29
53758;BME280;39674;59.860;30.672;2022-08-11T18:41:28;101708.50;;;19.24;65.57
53758;BME280;39674;59.860;30.672;2022-08-11T18:44:29;101691.59;;;19.11;65.82
53758;BME280;39674;59.860;30.672;2022-08-11T18:47:24;101705.97;;;19.10;65.96
53758;BME280;39674;59.860;30.672;2022-08-11T18:50:52;101759.66;;;19.45;65.60
53758;BME280;39674;59.860;30.672;2022-08-11T18:54:37;101727.00;;;19.27;66.34
53758;BME280;39674;59.860;30.672;2022-08-11T18:57:36;101769.28;;;19.48;66.93
53758;BME280;39674;59.860;30.672;2022-08-11T19:09:49;101802.38;;;19.47;67.08
53758;BME280;39674;59.860;30.672;2022-08-11T19:22:45;101693.34;;;18.60;69.06
53758;BME280;39674;59.860;30.672;2022-08-11T19:26:17;101737.56;;;18.79;68.68
53758;BME280;39674;59.860;30.672;2022-08-11T19:29:31;101689.59;;;18.50;69.13
53758;BME280;39674;59.860;30.672;2022-08-11T20:03:27;101736.34;;;18.31;70.33
53758;BME280;39674;59.860;30.672;2022-08-11T20:06:49;101736.88;;;18.36;70.45
53758;BME280;39674;59.860;30.672;2022-08-11T20:10:22;101812.56;;;18.64;70.63
53758;BME280;39674;59.860;30.672;2022-08-11T20:13:33;101740.59;;;18.21;70.80
53758;BME280;39674;59.860;30.672;2022-08-11T20:21:56;101812.88;;;18.59;71.36
53758;BME280;39674;59.860;30.672;2022-08-11T20:24:31;101757.25;;;18.11;71.50
53758;BME280;39674;59.860;30.672;2022-08-11T20:30:33;101810.94;;;18.49;71.12
53758;BME280;39674;59.860;30.672;2022-08-11T20:31:32;101739.06;;;18.04;71.60
53758;BME280;39674;59.860;30.672;2022-08-11T20:34:38;101755.94;;;18.04;71.50
53758;BME280;39674;59.860;30.672;2022-08-11T20:37:41;101734.47;;;17.91;71.79
53758;BME280;39674;59.860;30.672;2022-08-11T20:40:53;101817.88;;;18.38;72.03
53758;BME280;39674;59.860;30.672;2022-08-11T20:43:53;101766.00;;;18.01;72.26
53758;BME280;39674;59.860;30.672;2022-08-11T20:47:03;101745.16;;;17.78;72.56
53758;BME280;39674;59.860;30.672;2022-08-11T20:50:36;101720.47;;;17.60;72.73
53758;BME280;39674;59.860;30.672;2022-08-11T20:57:46;101810.72;;;18.11;72.61
53758;BME280;39674;59.860;30.672;2022-08-11T21:01:14;101775.31;;;17.80;73.42
53758;BME280;39674;59.860;30.672;2022-08-11T21:05:05;101703.69;;;17.31;73.27
53758;BME280;39674;59.860;30.672;2022-08-11T21:08:29;101784.56;;;17.75;74.15
53758;BME280;39674;59.860;30.672;2022-08-11T21:11:58;101778.28;;;17.76;73.50
53758;BME280;39674;59.860;30.672;2022-08-11T21:18:51;101820.41;;;17.85;74.04
53758;BME280;39674;59.860;30.672;2022-08-11T21:22:07;101743.00;;;17.29;74.44
53758;BME280;39674;59.860;30.672;2022-08-11T21:25:08;101813.28;;;17.71;74.10
53758;BME280;39674;59.860;30.672;2022-08-11T21:28:06;101740.22;;;17.30;74.92
53758;BME280;39674;59.860;30.672;2022-08-11T21:31:04;101709.06;;;17.02;74.60
53758;BME280;39674;59.860;30.672;2022-08-11T21:33:58;101777.47;;;17.46;74.87
53758;BME280;39674;59.860;30.672;2022-08-11T21:37:05;101730.31;;;17.18;74.74
53758;BME280;39674;59.860;30.672;2022-08-11T21:40:10;101781.94;;;17.46;74.48
53758;BME280;39674;59.860;30.672;2022-08-11T21:43:05;101720.59;;;17.03;74.62
53758;BME280;39674;59.860;30.672;2022-08-11T21:45:53;101751.47;;;17.21;75.11
53758;BME280;39674;59.860;30.672;2022-08-11T21:48:43;101828.00;;;17.64;77.05
53758;BME280;39674;59.860;30.672;2022-08-11T21:51:45;101777.50;;;17.32;75.45
53758;BME280;39674;59.860;30.672;2022-08-11T21:54:33;101722.03;;;16.94;76.31
53758;BME280;39674;59.860;30.672;2022-08-11T21:57:21;101816.38;;;17.51;76.82
53758;BME280;39674;59.860;30.672;2022-08-11T22:00:13;101842.31;;;17.63;75.67
53758;BME280;39674;59.860;30.672;2022-08-11T22:03:14;101768.91;;;17.12;77.52
53758;BME280;39674;59.860;30.672;2022-08-11T22:06:07;101740.81;;;16.92;78.79
53758;BME280;39674;59.860;30.672;2022-08-11T22:09:06;101806.47;;;17.24;78.79
53758;BME280;39674;59.860;30.672;2022-08-11T22:12:04;101774.47;;;17.09;77.24
53758;BME280;39674;59.860;30.672;2022-08-11T22:14:55;101842.91;;;17.39;77.16
53758;BME280;39674;59.860;30.672;2022-08-11T22:17:57;101778.84;;;16.96;77.22
53758;BME280;39674;59.860;30.672;2022-08-11T22:20:56;101812.00;;;17.06;77.81
53758;BME280;39674;59.860;30.672;2022-08-11T22:24:00;101815.63;;;17.05;79.56
53758;BME280;39674;59.860;30.672;2022-08-11T22:26:55;101790.03;;;16.87;78.30
53758;BME280;39674;59.860;30.672;2022-08-11T22:29:58;101775.16;;;16.68;79.01
53758;BME280;39674;59.860;30.672;2022-08-11T22:32:54;101765.69;;;16.62;78.51
53758;BME280;39674;59.860;30.672;2022-08-11T22:35:49;101777.03;;;16.66;79.40
53758;BME280;39674;59.860;30.672;2022-08-11T22:38:48;101834.59;;;17.00;79.82
53758;BME280;39674;59.860;30.672;2022-08-11T22:41:45;101774.47;;;16.64;79.56
53758;BME280;39674;59.860;30.672;2022-08-11T22:44:43;101763.09;;;16.46;79.50
53758;BME280;39674;59.860;30.672;2022-08-11T22:48:12;101806.97;;;16.71;80.92
53758;BME280;39674;59.860;30.672;2022-08-11T22:50:46;101783.13;;;16.53;79.49
53758;BME280;39674;59.860;30.672;2022-08-11T22:53:34;101851.31;;;16.88;80.18
53758;BME280;39674;59.860;30.672;2022-08-11T22:56:35;101845.28;;;16.84;79.98
53758;BME280;39674;59.860;30.672;2022-08-11T22:59:29;101733.09;;;16.12;80.19
53758;BME280;39674;59.860;30.672;2022-08-11T23:02:29;101849.47;;;16.74;81.00
53758;BME280;39674;59.860;30.672;2022-08-11T23:05:22;101807.06;;;16.39;80.78
53758;BME280;39674;59.860;30.672;2022-08-11T23:08:40;101787.34;;;16.27;81.30
53758;BME280;39674;59.860;30.672;2022-08-11T23:11:46;101801.75;;;16.39;81.33
53758;BME280;39674;59.860;30.672;2022-08-11T23:14:38;101747.34;;;15.97;81.72
53758;BME280;39674;59.860;30.672;2022-08-11T23:18:18;101782.06;;;16.26;81.04
53758;BME280;39674;59.860;30.672;2022-08-11T23:20:51;101814.91;;;16.42;81.70
53758;BME280;39674;59.860;30.672;2022-08-11T23:23:46;101846.28;;;16.53;82.02
53758;BME280;39674;59.860;30.672;2022-08-11T23:26:36;101825.66;;;16.41;82.20
53758;BME280;39674;59.860;30.672;2022-08-11T23:29:34;101816.22;;;16.35;81.47
53758;BME280;39674;59.860;30.672;2022-08-11T23:32:38;101810.88;;;16.35;82.24
53758;BME280;39674;59.860;30.672;2022-08-11T23:35:31;101806.75;;;16.29;82.07
53758;BME280;39674;59.860;30.672;2022-08-11T23:38:33;101792.72;;;16.11;82.25
53758;BME280;39674;59.860;30.672;2022-08-11T23:41:28;101818.28;;;16.30;82.77
53758;BME280;39674;59.860;30.672;2022-08-11T23:44:35;101856.66;;;16.58;82.13
53758;BME280;39674;59.860;30.672;2022-08-11T23:47:42;101813.81;;;16.30;82.47
53758;BME280;39674;59.860;30.672;2022-08-11T23:50:35;101756.53;;;15.91;83.12
53758;BME280;39674;59.860;30.672;2022-08-11T23:53:37;101806.06;;;16.26;83.24
53758;BME280;39674;59.860;30.672;2022-08-11T23:56:35;101827.22;;;16.29;83.37
53758;BME280;39674;59.860;30.672;2022-08-11T23:59:33;101766.25;;;15.92;83.43
